Time;durP1;ratioP1;P1;durP2;ratioP2;P2;SDS_P1;SDS_P2;PMS_P1;PMS_P2;Temp;Humidity;BMP_temperature;BMP_pressure;BME280_temperature;BME280_humidity;BME280_pressure;Samples;Min_cycle;Max_cycle;Signal;HPM_P1;HPM_P2
2022/11/06 00:01:14;;;;;;;5.22;2.58;;;9.80;99.90;;;;;;4973131;28;20489;-82
2022/11/06 00:03:40;;;;;;;2.78;2.30;;;9.80;99.90;;;;;;5000507;28;20053;-81
2022/11/06 00:08:52;;;;;;;4.60;1.77;;;9.70;99.90;;;;;;5011736;28;20062;-81
2022/11/06 00:11:17;;;;;;;2.65;1.80;;;9.80;99.90;;;;;;5007538;28;20517;-82
2022/11/06 00:13:46;;;;;;;6.10;1.95;;;9.70;99.90;;;;;;5003138;28;20041;-81
2022/11/06 00:16:13;;;;;;;5.22;2.35;;;9.70;99.90;;;;;;4993406;28;20088;-81
2022/11/06 00:18:40;;;;;;;6.38;2.92;;;9.70;99.90;;;;;;5008491;28;20046;-82
2022/11/06 00:21:08;;;;;;;6.10;2.40;;;9.70;99.90;;;;;;5003271;28;20056;-82
2022/11/06 00:23:34;;;;;;;3.53;2.35;;;9.70;99.90;;;;;;5002134;28;20077;-82
2022/11/06 00:25:59;;;;;;;2.53;1.67;;;9.70;99.90;;;;;;4985827;28;20077;-81
2022/11/06 00:28:25;;;;;;;7.30;2.67;;;9.70;99.90;;;;;;5006202;28;20144;-83
2022/11/06 00:31:00;;;;;;;2.45;1.73;;;9.70;99.90;;;;;;5006790;28;20047;-83
2022/11/06 00:33:25;;;;;;;3.08;2.33;;;9.70;99.90;;;;;;5004692;28;20516;-82
2022/11/06 00:35:51;;;;;;;3.10;2.20;;;9.70;99.90;;;;;;5005240;28;20081;-82
2022/11/06 00:38:17;;;;;;;6.40;2.67;;;9.70;99.90;;;;;;4984350;28;20064;-81
2022/11/06 00:40:42;;;;;;;5.63;2.45;;;9.70;99.90;;;;;;4999191;28;20583;-86
2022/11/06 00:43:08;;;;;;;6.57;2.55;;;9.70;99.90;;;;;;5003859;28;20477;-81
2022/11/06 00:45:34;;;;;;;4.05;2.05;;;9.70;99.90;;;;;;5002581;28;20050;-81
2022/11/06 00:47:59;;;;;;;5.60;2.15;;;9.70;99.90;;;;;;5001634;28;20041;-82
2022/11/06 00:50:25;;;;;;;2.40;2.13;;;9.70;99.90;;;;;;4991722;28;20457;-82
2022/11/06 00:52:51;;;;;;;7.10;2.67;;;9.70;99.90;;;;;;4997557;28;20045;-85
2022/11/06 00:55:16;;;;;;;3.58;1.95;;;9.70;99.90;;;;;;5006439;28;20046;-84
2022/11/06 00:57:42;;;;;;;4.55;1.88;;;9.70;99.90;;;;;;5005646;28;20077;-80
2022/11/06 01:00:10;;;;;;;4.22;2.85;;;9.60;99.90;;;;;;5003782;28;20100;-82
2022/11/06 01:02:35;;;;;;;5.68;2.75;;;9.70;99.90;;;;;;5005826;28;20045;-82
2022/11/06 01:05:01;;;;;;;7.50;2.45;;;9.70;99.90;;;;;;5004166;28;20050;-84
2022/11/06 01:07:27;;;;;;;5.15;1.60;;;9.70;99.90;;;;;;5002799;28;20077;-82
2022/11/06 01:09:53;;;;;;;2.78;2.35;;;9.80;99.90;;;;;;5018947;28;20042;-81
2022/11/06 01:12:18;;;;;;;3.03;1.85;;;9.80;99.90;;;;;;5004622;28;20041;-81
2022/11/06 01:14:44;;;;;;;4.13;1.80;;;9.70;99.90;;;;;;5004382;28;20034;-82
2022/11/06 01:17:10;;;;;;;3.05;2.53;;;9.70;99.90;;;;;;5002203;28;20685;-82
2022/11/06 01:19:36;;;;;;;2.70;1.70;;;9.60;99.90;;;;;;5005284;28;20046;-81
2022/11/06 01:22:02;;;;;;;5.20;2.53;;;9.60;99.90;;;;;;5019751;28;20040;-79
2022/11/06 01:24:28;;;;;;;8.18;2.58;;;9.50;99.90;;;;;;5006320;28;20085;-82
2022/11/06 01:26:54;;;;;;;2.95;2.10;;;9.60;99.90;;;;;;4997312;28;20054;-81
2022/11/06 01:29:20;;;;;;;3.10;1.92;;;9.50;99.90;;;;;;4984402;28;20053;-81
2022/11/06 01:31:49;;;;;;;4.70;2.38;;;9.50;99.90;;;;;;5000268;28;20056;-81
2022/11/06 01:34:15;;;;;;;7.65;2.67;;;9.40;99.90;;;;;;5011741;28;20069;-79
2022/11/06 01:36:41;;;;;;;2.60;2.25;;;9.40;99.90;;;;;;5000499;28;20057;-80
2022/11/06 01:39:10;;;;;;;8.82;2.58;;;9.40;99.90;;;;;;4999946;28;20062;-83
2022/11/06 01:41:39;;;;;;;4.05;1.83;;;9.40;99.90;;;;;;5000510;28;20078;-81
2022/11/06 01:44:34;;;;;;;5.05;1.42;;;9.40;99.90;;;;;;5002882;28;20141;-82
2022/11/06 01:47:03;;;;;;;7.20;2.30;;;9.40;99.90;;;;;;5014132;28;20107;-79
2022/11/06 01:49:36;;;;;;;3.63;2.05;;;9.30;99.90;;;;;;5000625;28;20144;-80
2022/11/06 01:52:06;;;;;;;3.47;1.77;;;9.30;99.90;;;;;;5004257;28;20042;-83
2022/11/06 01:54:35;;;;;;;3.30;2.33;;;9.30;99.90;;;;;;5003635;28;20053;-79
2022/11/06 01:57:02;;;;;;;2.78;2.05;;;9.30;99.90;;;;;;4998587;28;20085;-83
2022/11/06 01:59:31;;;;;;;2.85;2.05;;;9.30;99.90;;;;;;4998397;28;20046;-81
2022/11/06 02:01:57;;;;;;;2.65;1.98;;;9.30;99.90;;;;;;5000988;28;20042;-79
2022/11/06 02:04:25;;;;;;;2.95;1.75;;;9.30;99.90;;;;;;4999870;28;20061;-81
2022/11/06 02:06:51;;;;;;;3.13;2.30;;;9.30;99.90;;;;;;4999268;28;20100;-81
2022/11/06 02:09:18;;;;;;;3.53;2.38;;;9.30;99.90;;;;;;5002687;28;20054;-81
2022/11/06 02:12:10;;;;;;;2.35;2.15;;;9.20;99.90;;;;;;5000866;28;20045;-81
2022/11/06 02:15:07;;;;;;;5.00;1.83;;;9.20;99.90;;;;;;4993040;28;20145;-82
2022/11/06 02:18:22;;;;;;;3.25;2.13;;;9.20;99.90;;;;;;4999922;28;20037;-81
2022/11/06 02:21:23;;;;;;;4.78;2.47;;;9.20;99.90;;;;;;5000619;28;20050;-80
2022/11/06 02:24:25;;;;;;;5.03;2.40;;;9.20;99.90;;;;;;5003584;28;20045;-81
2022/11/06 02:27:23;;;;;;;1.83;1.52;;;9.10;99.90;;;;;;4998811;28;20061;-80
2022/11/06 02:29:58;;;;;;;4.55;1.65;;;9.10;99.90;;;;;;5001767;28;20446;-81
2022/11/06 02:32:47;;;;;;;3.33;1.95;;;9.20;99.90;;;;;;5009974;28;20134;-80
2022/11/06 02:35:32;;;;;;;2.40;1.70;;;9.20;99.90;;;;;;5003130;28;20050;-81
2022/11/06 02:38:04;;;;;;;4.90;1.67;;;9.10;99.90;;;;;;5003322;28;20109;-82
2022/11/06 02:40:33;;;;;;;4.18;2.10;;;9.20;99.90;;;;;;5003210;28;20160;-81
2022/11/06 02:43:04;;;;;;;1.85;1.67;;;9.20;99.90;;;;;;5003789;28;20050;-81
2022/11/06 02:45:35;;;;;;;2.53;1.48;;;9.10;99.90;;;;;;5003923;28;20477;-81
2022/11/06 02:48:01;;;;;;;4.70;2.28;;;9.10;99.90;;;;;;5002058;28;20188;-81
2022/11/06 02:50:34;;;;;;;5.85;2.92;;;9.10;99.90;;;;;;5000056;28;20512;-81
2022/11/06 02:53:05;;;;;;;2.83;1.35;;;9.20;99.90;;;;;;4998087;28;20053;-82
2022/11/06 02:55:36;;;;;;;8.10;2.13;;;9.10;99.90;;;;;;4995010;28;20069;-81
2022/11/06 02:58:18;;;;;;;2.67;1.73;;;9.10;99.90;;;;;;5003523;28;20141;-81
2022/11/06 03:00:51;;;;;;;4.55;2.33;;;9.20;99.90;;;;;;5002351;28;20050;-81
2022/11/06 03:03:25;;;;;;;2.22;1.63;;;9.20;99.90;;;;;;5005594;28;20042;-82
2022/11/06 03:06:00;;;;;;;5.65;1.75;;;9.20;99.90;;;;;;5003255;28;20050;-83
2022/11/06 03:08:50;;;;;;;3.40;1.80;;;9.20;99.90;;;;;;4997562;28;20042;-81
2022/11/06 03:11:26;;;;;;;5.80;2.78;;;9.20;99.90;;;;;;5001178;28;20538;-83
2022/11/06 03:14:19;;;;;;;4.07;2.33;;;9.20;99.90;;;;;;5000555;28;20047;-80
2022/11/06 03:17:04;;;;;;;4.13;2.08;;;9.20;99.90;;;;;;5005748;28;20535;-80
2022/11/06 03:19:35;;;;;;;11.32;1.75;;;9.20;99.90;;;;;;5000954;28;20050;-82
2022/11/06 03:22:01;;;;;;;2.05;1.60;;;9.20;99.90;;;;;;5014209;28;20475;-81
2022/11/06 03:24:35;;;;;;;3.42;1.63;;;9.20;99.90;;;;;;5010248;28;20057;-81
2022/11/06 03:27:09;;;;;;;2.05;1.42;;;9.20;99.90;;;;;;5014230;28;20128;-81
2022/11/06 03:29:54;;;;;;;2.75;1.35;;;9.20;99.90;;;;;;5003684;28;20129;-81
2022/11/06 03:32:29;;;;;;;6.18;1.73;;;9.20;99.90;;;;;;4997880;28;20053;-80
2022/11/06 03:35:01;;;;;;;4.30;1.90;;;9.20;99.90;;;;;;5002987;28;20034;-81
2022/11/06 03:37:33;;;;;;;1.50;1.02;;;9.20;99.90;;;;;;4998455;28;20077;-81
2022/11/06 03:40:04;;;;;;;1.40;1.30;;;9.20;99.90;;;;;;5005199;28;20052;-83
2022/11/06 03:42:31;;;;;;;19.67;2.30;;;9.10;99.90;;;;;;5004514;28;20497;-80
2022/11/06 03:45:01;;;;;;;3.58;2.25;;;9.20;99.90;;;;;;5008752;28;20034;-80
2022/11/06 03:47:30;;;;;;;5.50;1.35;;;9.10;99.90;;;;;;5000610;28;20049;-81
2022/11/06 03:50:23;;;;;;;0.75;0.75;;;9.10;99.90;;;;;;5000302;28;20124;-81
2022/11/06 03:53:03;;;;;;;2.58;1.88;;;9.10;99.90;;;;;;5009316;28;20046;-82
2022/11/06 03:55:34;;;;;;;1.63;1.52;;;9.10;99.90;;;;;;4988124;28;20107;-82
2022/11/06 03:58:09;;;;;;;2.35;1.73;;;9.10;99.90;;;;;;5009296;28;20052;-82
2022/11/06 04:00:39;;;;;;;1.30;0.98;;;9.10;99.90;;;;;;5012785;28;20050;-82
2022/11/06 04:03:12;;;;;;;1.00;0.80;;;9.10;99.90;;;;;;5008111;28;20050;-80
2022/11/06 04:05:43;;;;;;;3.05;1.35;;;9.10;99.90;;;;;;5006403;28;20050;-84
2022/11/06 04:14:01;;;;;;;7.28;1.33;;;9.10;99.90;;;;;;5006287;28;20050;-80
2022/11/06 04:16:32;;;;;;;6.13;1.42;;;9.10;99.90;;;;;;4997602;28;20050;-81
2022/11/06 04:18:58;;;;;;;4.28;1.52;;;9.00;99.90;;;;;;5006394;28;20050;-80
2022/11/06 04:22:00;;;;;;;7.82;1.15;;;9.10;99.90;;;;;;5007641;28;20049;-81
2022/11/06 04:27:19;;;;;;;1.63;0.93;;;9.00;99.90;;;;;;5003052;28;20057;-80
2022/11/06 04:30:02;;;;;;;5.07;2.00;;;9.10;99.90;;;;;;5002620;28;20129;-82
2022/11/06 04:32:48;;;;;;;1.73;1.30;;;9.00;99.90;;;;;;5005726;28;20049;-80
2022/11/06 04:35:18;;;;;;;1.83;1.05;;;9.00;99.90;;;;;;4976698;28;20144;-80
2022/11/06 04:38:02;;;;;;;9.68;2.03;;;9.00;99.90;;;;;;5017247;28;20086;-81
2022/11/06 04:40:55;;;;;;;1.80;1.30;;;9.00;99.90;;;;;;5016614;28;20069;-81
2022/11/06 04:43:38;;;;;;;1.35;1.05;;;9.00;99.90;;;;;;4997625;28;20069;-81
2022/11/06 04:46:07;;;;;;;2.80;1.15;;;9.00;99.90;;;;;;5005334;28;20049;-82
2022/11/06 04:48:33;;;;;;;0.95;0.80;;;9.00;99.90;;;;;;5005522;28;20046;-81
2022/11/06 04:51:02;;;;;;;1.73;1.05;;;8.90;99.90;;;;;;4990246;28;20049;-84
2022/11/06 04:53:29;;;;;;;9.45;1.73;;;9.00;99.90;;;;;;5005011;28;20370;-81
2022/11/06 04:56:01;;;;;;;2.13;1.65;;;9.00;99.90;;;;;;4998403;28;20056;-81
2022/11/06 04:58:26;;;;;;;5.57;1.40;;;9.00;99.90;;;;;;5001015;28;20115;-80
2022/11/06 05:00:52;;;;;;;2.47;1.45;;;8.90;99.90;;;;;;4991216;28;20508;-81
2022/11/06 05:03:18;;;;;;;6.63;1.67;;;9.00;99.90;;;;;;4996008;28;20121;-82
2022/11/06 05:05:44;;;;;;;5.75;1.00;;;9.00;99.90;;;;;;5001213;28;20042;-83
2022/11/06 05:08:15;;;;;;;1.98;1.20;;;9.00;99.90;;;;;;5022640;28;20046;-81
2022/11/06 05:10:42;;;;;;;6.50;1.38;;;9.00;99.90;;;;;;5005721;28;20149;-85
2022/11/06 05:13:08;;;;;;;2.22;0.93;;;9.00;99.90;;;;;;5003449;28;20511;-80
2022/11/06 05:15:34;;;;;;;2.47;0.90;;;9.00;99.90;;;;;;5004176;28;20042;-83
2022/11/06 05:17:59;;;;;;;4.97;1.40;;;9.00;99.90;;;;;;5002569;28;20477;-81
2022/11/06 05:20:25;;;;;;;6.10;1.73;;;9.00;99.90;;;;;;4987422;28;20054;-81
2022/11/06 05:22:56;;;;;;;4.57;1.38;;;9.10;99.90;;;;;;5000482;28;20054;-81
2022/11/06 05:25:30;;;;;;;0.50;0.50;;;9.00;99.90;;;;;;5001231;28;20100;-80
2022/11/06 05:27:56;;;;;;;2.47;1.60;;;9.10;99.90;;;;;;5005335;28;20054;-82
2022/11/06 05:30:23;;;;;;;1.58;0.98;;;9.10;99.90;;;;;;5004358;28;20065;-80
2022/11/06 05:32:49;;;;;;;1.70;1.05;;;9.10;99.90;;;;;;4997973;28;20049;-81
2022/11/06 05:35:16;;;;;;;1.13;0.88;;;9.10;99.90;;;;;;4996976;28;20056;-81
2022/11/06 05:37:42;;;;;;;1.58;0.93;;;9.10;99.90;;;;;;4988191;28;20137;-83
2022/11/06 05:40:07;;;;;;;4.30;1.38;;;9.10;99.90;;;;;;5004015;28;20117;-80
2022/11/06 05:42:39;;;;;;;2.60;1.52;;;9.10;99.90;;;;;;4991620;28;20108;-80
2022/11/06 05:45:06;;;;;;;1.88;1.40;;;9.10;99.90;;;;;;5003902;28;20064;-85
2022/11/06 05:47:33;;;;;;;1.92;1.17;;;9.10;99.90;;;;;;5003782;28;20046;-81
2022/11/06 05:49:58;;;;;;;1.13;0.93;;;9.20;99.90;;;;;;5004359;28;20103;-81
2022/11/06 05:52:24;;;;;;;2.15;1.42;;;9.20;99.90;;;;;;4987548;28;20046;-82
2022/11/06 05:54:50;;;;;;;1.52;0.70;;;9.20;99.90;;;;;;5005381;28;20041;-82
2022/11/06 05:57:15;;;;;;;3.42;0.80;;;9.20;99.90;;;;;;4991948;28;20145;-83
2022/11/06 05:59:42;;;;;;;1.88;1.20;;;9.20;99.90;;;;;;5004469;28;20045;-81
2022/11/06 06:02:08;;;;;;;1.45;0.73;;;9.30;99.90;;;;;;4998966;28;20074;-81
2022/11/06 06:04:33;;;;;;;4.10;1.23;;;9.20;99.90;;;;;;4991707;28;20128;-80
2022/11/06 06:06:59;;;;;;;3.92;1.33;;;9.30;99.90;;;;;;5003592;28;20497;-80
2022/11/06 06:09:25;;;;;;;1.30;0.60;;;9.30;99.90;;;;;;4983921;28;20073;-81
2022/11/06 06:11:51;;;;;;;1.85;0.68;;;9.30;99.90;;;;;;4999579;28;20108;-80
2022/11/06 06:14:19;;;;;;;2.05;0.75;;;9.40;99.90;;;;;;5003189;28;20039;-80
2022/11/06 06:16:44;;;;;;;6.13;0.75;;;9.40;99.90;;;;;;5003470;28;20054;-81
2022/11/06 06:19:10;;;;;;;1.63;1.05;;;9.40;99.90;;;;;;5001371;28;20046;-84
2022/11/06 06:21:36;;;;;;;6.13;1.50;;;9.40;99.90;;;;;;5004219;28;20399;-82
2022/11/06 06:24:03;;;;;;;2.70;0.70;;;9.40;99.90;;;;;;4994687;28;20062;-81
2022/11/06 06:26:29;;;;;;;1.17;0.70;;;9.50;99.90;;;;;;5005410;28;20068;-82
2022/11/06 06:28:55;;;;;;;0.98;0.88;;;9.50;99.90;;;;;;4991501;28;20539;-82
2022/11/06 06:31:21;;;;;;;0.68;0.50;;;9.50;99.90;;;;;;4991308;28;20370;-81
2022/11/06 06:33:46;;;;;;;1.92;1.20;;;9.50;99.90;;;;;;5009693;28;20103;-80
2022/11/06 06:36:12;;;;;;;1.23;1.08;;;9.50;99.90;;;;;;5026312;28;20046;-81
2022/11/06 06:38:38;;;;;;;3.88;0.73;;;9.60;99.90;;;;;;5008336;28;20041;-80
2022/11/06 06:41:05;;;;;;;2.28;1.23;;;9.50;99.90;;;;;;5004662;28;20053;-80
2022/11/06 06:43:31;;;;;;;0.70;0.60;;;9.50;99.90;;;;;;5022425;28;20050;-81
2022/11/06 06:45:58;;;;;;;3.83;1.00;;;9.50;99.90;;;;;;4993602;28;20386;-81
2022/11/06 06:48:24;;;;;;;3.20;1.10;;;9.50;99.90;;;;;;5008886;28;20160;-81
2022/11/06 06:50:50;;;;;;;1.00;0.80;;;9.60;99.90;;;;;;5010763;28;20121;-81
2022/11/06 06:53:16;;;;;;;1.90;1.10;;;9.60;99.90;;;;;;5004220;28;20046;-81
2022/11/06 06:55:41;;;;;;;2.05;0.68;;;9.60;99.90;;;;;;5010674;28;20060;-82
2022/11/06 06:58:07;;;;;;;3.75;0.80;;;9.70;99.90;;;;;;5009418;28;20050;-80
2022/11/06 07:00:33;;;;;;;3.25;1.05;;;9.60;99.90;;;;;;5005856;28;20172;-82
2022/11/06 07:03:00;;;;;;;5.82;1.30;;;9.60;99.90;;;;;;5002173;28;20393;-81
2022/11/06 07:05:25;;;;;;;0.73;0.43;;;9.60;99.90;;;;;;4999467;28;20046;-83
2022/11/06 07:07:51;;;;;;;1.15;0.52;;;9.70;99.90;;;;;;5026987;28;20037;-81
2022/11/06 07:10:17;;;;;;;0.90;0.73;;;9.70;99.90;;;;;;5006546;28;20042;-81
2022/11/06 07:12:43;;;;;;;2.40;0.90;;;9.70;99.90;;;;;;4990167;28;20046;-80
2022/11/06 07:15:08;;;;;;;4.47;0.88;;;9.80;99.90;;;;;;4986443;28;20046;-82
2022/11/06 07:17:34;;;;;;;1.58;0.63;;;9.80;99.90;;;;;;5010748;28;20524;-82
2022/11/06 07:20:00;;;;;;;4.75;0.70;;;9.80;99.90;;;;;;5005923;28;20054;-82
2022/11/06 07:22:26;;;;;;;1.35;0.98;;;9.80;99.90;;;;;;4990502;28;20111;-82
2022/11/06 07:24:52;;;;;;;1.85;1.05;;;9.80;99.90;;;;;;4986985;28;20058;-82
2022/11/06 07:27:18;;;;;;;0.68;0.50;;;9.80;99.90;;;;;;5005088;28;20053;-84
2022/11/06 07:29:43;;;;;;;1.92;0.85;;;9.90;99.90;;;;;;5003052;28;20073;-83
2022/11/06 07:32:09;;;;;;;2.15;0.90;;;9.90;99.90;;;;;;4998014;28;20038;-82
2022/11/06 07:34:37;;;;;;;1.55;0.90;;;9.90;99.90;;;;;;5005610;28;20042;-82
2022/11/06 07:37:07;;;;;;;8.07;0.80;;;10.00;99.90;;;;;;5002653;28;20168;-82
2022/11/06 07:39:33;;;;;;;4.57;0.77;;;10.00;99.90;;;;;;5006488;28;20057;-82
2022/11/06 07:41:59;;;;;;;5.97;0.65;;;10.10;99.90;;;;;;5007843;28;20561;-83
2022/11/06 07:44:24;;;;;;;5.57;1.10;;;10.10;99.90;;;;;;4986283;28;20128;-83
2022/11/06 07:46:50;;;;;;;3.67;1.08;;;10.10;99.90;;;;;;5009849;28;20049;-83
2022/11/06 07:49:16;;;;;;;3.47;0.77;;;10.10;99.90;;;;;;5006200;28;20453;-86
2022/11/06 07:51:43;;;;;;;9.65;1.05;;;10.10;99.90;;;;;;5015115;28;20186;-82
2022/11/06 07:54:10;;;;;;;0.65;0.38;;;10.10;99.90;;;;;;4987982;28;20048;-83
2022/11/06 07:56:36;;;;;;;3.60;1.17;;;10.10;99.90;;;;;;5012230;28;20045;-82
2022/11/06 07:59:02;;;;;;;0.95;0.68;;;10.10;99.90;;;;;;4990390;28;20038;-81
2022/11/06 08:01:27;;;;;;;1.98;1.42;;;10.10;99.90;;;;;;5001300;28;20034;-84
2022/11/06 08:03:53;;;;;;;3.28;0.80;;;10.10;99.90;;;;;;4994824;28;20143;-83
2022/11/06 08:06:19;;;;;;;1.67;0.90;;;10.20;99.90;;;;;;5008147;28;20034;-82
2022/11/06 08:08:44;;;;;;;1.05;0.68;;;10.20;99.90;;;;;;5021828;28;20049;-82
2022/11/06 08:11:11;;;;;;;2.20;1.00;;;10.20;99.90;;;;;;4996798;28;20041;-84
2022/11/06 08:13:37;;;;;;;1.27;0.50;;;10.30;99.90;;;;;;5010114;28;20041;-84
2022/11/06 08:16:13;;;;;;;1.48;0.73;;;10.30;99.90;;;;;;5008312;28;20046;-82
2022/11/06 08:18:40;;;;;;;3.55;0.73;;;10.30;99.90;;;;;;5007788;28;20042;-81
2022/11/06 08:21:06;;;;;;;2.15;0.60;;;10.40;99.90;;;;;;5005718;28;20040;-82
2022/11/06 08:23:33;;;;;;;0.70;0.50;;;10.40;99.90;;;;;;4991341;28;20381;-82
2022/11/06 08:26:00;;;;;;;3.63;1.05;;;10.30;99.90;;;;;;5010261;28;20077;-83
2022/11/06 08:28:27;;;;;;;6.43;1.58;;;10.30;99.90;;;;;;5010683;28;20188;-81
2022/11/06 08:30:53;;;;;;;2.47;0.80;;;10.30;99.90;;;;;;5012152;28;20188;-82
2022/11/06 08:33:20;;;;;;;2.88;0.60;;;10.30;99.90;;;;;;5005065;28;20180;-82
2022/11/06 08:35:46;;;;;;;0.73;0.47;;;10.30;99.90;;;;;;5007732;28;20256;-83
2022/11/06 08:38:12;;;;;;;1.92;0.65;;;10.30;99.90;;;;;;4991272;28;20140;-84
2022/11/06 08:40:38;;;;;;;5.85;0.90;;;10.30;99.90;;;;;;5006705;28;20093;-83
2022/11/06 08:43:06;;;;;;;6.20;1.90;;;10.20;99.90;;;;;;4973153;28;20046;-82
2022/11/06 08:45:39;;;;;;;5.15;0.88;;;10.30;99.90;;;;;;5006675;28;20049;-82
2022/11/06 08:48:06;;;;;;;2.47;1.05;;;10.30;99.90;;;;;;4987210;28;20042;-82
2022/11/06 08:50:32;;;;;;;2.95;0.77;;;10.30;99.90;;;;;;5003760;28;20039;-83
2022/11/06 08:52:59;;;;;;;1.20;0.93;;;10.40;99.90;;;;;;5004993;28;20491;-84
2022/11/06 08:55:25;;;;;;;2.22;0.50;;;10.50;99.90;;;;;;5008596;28;20081;-83
2022/11/06 08:57:54;;;;;;;1.20;1.10;;;10.50;99.90;;;;;;5007608;28;20038;-83
2022/11/06 09:00:19;;;;;;;9.50;0.90;;;10.70;99.90;;;;;;4981630;28;20115;-84
2022/11/06 09:02:45;;;;;;;3.60;1.10;;;10.80;99.90;;;;;;5008514;28;20517;-81
2022/11/06 09:05:10;;;;;;;4.65;0.73;;;10.90;99.90;;;;;;4992722;28;20046;-83
2022/11/06 09:07:36;;;;;;;5.97;0.85;;;11.00;99.90;;;;;;4976569;28;20393;-83
2022/11/06 09:10:02;;;;;;;2.00;0.90;;;11.10;99.90;;;;;;4976607;28;20077;-84
2022/11/06 09:12:28;;;;;;;3.13;1.08;;;11.00;99.90;;;;;;5008698;28;20495;-81
2022/11/06 09:14:54;;;;;;;0.63;0.40;;;11.00;99.90;;;;;;5011186;28;20042;-84
2022/11/06 09:17:22;;;;;;;1.42;0.60;;;11.00;99.90;;;;;;4979705;28;20041;-84
2022/11/06 09:19:50;;;;;;;14.75;1.35;;;10.90;99.90;;;;;;4988162;28;20053;-83
2022/11/06 09:22:16;;;;;;;0.20;0.20;;;10.90;99.90;;;;;;5011305;28;20088;-83
2022/11/06 09:24:41;;;;;;;9.18;1.23;;;10.90;99.90;;;;;;5012104;28;20044;-82
2022/11/06 09:27:07;;;;;;;2.50;1.40;;;10.90;99.90;;;;;;5011380;28;20038;-83
2022/11/06 09:29:33;;;;;;;1.95;0.85;;;11.10;99.90;;;;;;5011811;28;20045;-84
2022/11/06 09:32:00;;;;;;;1.75;0.63;;;11.20;99.90;;;;;;5011817;28;20061;-81
2022/11/06 09:34:25;;;;;;;2.92;0.63;;;11.20;99.90;;;;;;5011456;28;20555;-82
2022/11/06 09:36:51;;;;;;;2.42;1.33;;;11.30;99.90;;;;;;5010148;28;20137;-84
2022/11/06 09:39:17;;;;;;;3.53;0.60;;;11.30;99.90;;;;;;4992865;28;20057;-83
2022/11/06 09:41:57;;;;;;;5.80;0.77;;;11.30;99.90;;;;;;5011648;28;20058;-84
2022/11/06 09:44:46;;;;;;;5.03;0.65;;;11.20;99.90;;;;;;4995763;28;20104;-83
2022/11/06 09:47:18;;;;;;;1.98;0.38;;;11.20;99.90;;;;;;5009597;28;20456;-84
2022/11/06 09:49:49;;;;;;;1.38;0.63;;;11.30;99.90;;;;;;5011991;28;20136;-83
2022/11/06 09:52:17;;;;;;;0.82;0.82;;;11.30;99.90;;;;;;4995650;28;20062;-84
2022/11/06 09:54:53;;;;;;;1.50;0.60;;;11.40;99.90;;;;;;5011434;28;20042;-82
2022/11/06 09:57:41;;;;;;;1.10;0.65;;;11.50;99.90;;;;;;5012615;28;20061;-83
2022/11/06 10:00:10;;;;;;;6.13;1.55;;;11.50;99.90;;;;;;4997029;28;20134;-84
2022/11/06 10:02:48;;;;;;;1.25;0.73;;;11.60;99.90;;;;;;5011534;28;20409;-83
2022/11/06 10:05:27;;;;;;;0.88;0.70;;;11.70;99.90;;;;;;5011791;28;20049;-84
2022/11/06 10:07:55;;;;;;;3.63;0.75;;;11.70;99.90;;;;;;5013339;28;20042;-84
2022/11/06 10:10:28;;;;;;;1.23;0.35;;;11.70;99.90;;;;;;5011556;28;20482;-83
2022/11/06 10:13:15;;;;;;;6.72;0.50;;;11.60;99.90;;;;;;4991288;28;20141;-83
2022/11/06 10:16:05;;;;;;;2.75;0.95;;;11.60;99.90;;;;;;5031630;28;20108;-81
2022/11/06 10:18:58;;;;;;;2.78;0.45;;;11.60;99.90;;;;;;5014695;28;20442;-83
2022/11/06 10:21:29;;;;;;;2.05;0.75;;;11.60;99.90;;;;;;4996185;28;20046;-82
2022/11/06 10:23:58;;;;;;;5.53;0.63;;;11.50;99.90;;;;;;4995671;28;20053;-82
2022/11/06 10:26:39;;;;;;;2.05;0.55;;;11.50;99.90;;;;;;4998357;28;20085;-83
2022/11/06 10:29:30;;;;;;;6.30;0.63;;;11.50;99.90;;;;;;5015382;28;20053;-84
2022/11/06 10:32:14;;;;;;;0.75;0.30;;;11.50;99.90;;;;;;5015457;28;20093;-84
2022/11/06 10:34:46;;;;;;;1.40;0.55;;;11.50;99.90;;;;;;5012586;28;20041;-82
2022/11/06 10:37:21;;;;;;;0.55;0.40;;;11.40;99.90;;;;;;5014337;28;20096;-83
2022/11/06 10:39:48;;;;;;;3.80;0.57;;;11.30;99.90;;;;;;5015045;28;20057;-82
2022/11/06 10:42:18;;;;;;;0.65;0.50;;;11.30;99.90;;;;;;4998157;28;20058;-83
2022/11/06 10:44:51;;;;;;;4.68;0.57;;;11.20;99.90;;;;;;5002160;28;20533;-81
2022/11/06 10:47:52;;;;;;;1.85;1.17;;;11.20;99.90;;;;;;5004813;28;20447;-82
2022/11/06 10:50:18;;;;;;;4.95;0.50;;;11.20;99.90;;;;;;5009778;28;20042;-82
2022/11/06 10:53:10;;;;;;;0.30;0.30;;;11.20;99.90;;;;;;5012454;28;20099;-82
2022/11/06 10:56:05;;;;;;;0.70;0.50;;;11.30;99.90;;;;;;5021832;28;20380;-82
2022/11/06 10:58:32;;;;;;;0.88;0.30;;;11.30;99.90;;;;;;5011834;28;20428;-81
2022/11/06 11:01:04;;;;;;;4.22;0.60;;;11.40;99.90;;;;;;5013280;28;20056;-82
2022/11/06 11:03:32;;;;;;;6.18;1.13;;;11.50;99.90;;;;;;5011012;28;20057;-82
2022/11/06 11:05:58;;;;;;;5.93;0.82;;;11.60;99.90;;;;;;5005896;28;20042;-82
2022/11/06 11:08:29;;;;;;;0.47;0.47;;;11.70;99.90;;;;;;5006345;28;20137;-83
2022/11/06 11:11:03;;;;;;;3.95;0.75;;;11.70;99.90;;;;;;5001891;28;20088;-83
2022/11/06 11:13:29;;;;;;;2.20;1.08;;;11.80;99.90;;;;;;5007518;28;20513;-82
2022/11/06 11:15:55;;;;;;;1.38;0.88;;;11.90;99.90;;;;;;4976146;28;20073;-82
2022/11/06 11:18:30;;;;;;;0.38;0.35;;;12.00;99.90;;;;;;5002733;28;20049;-82
2022/11/06 11:21:19;;;;;;;1.15;0.40;;;12.00;99.90;;;;;;5007505;28;20038;-82
2022/11/06 11:23:59;;;;;;;4.70;0.95;;;12.10;99.90;;;;;;5013356;28;20074;-82
2022/11/06 11:26:31;;;;;;;2.55;1.10;;;12.10;99.90;;;;;;4994060;28;20038;-81
2022/11/06 11:28:59;;;;;;;5.28;1.00;;;12.20;99.90;;;;;;4999572;28;20523;-83
2022/11/06 11:31:34;;;;;;;4.82;0.85;;;12.20;99.90;;;;;;5003158;28;20100;-82
2022/11/06 11:34:03;;;;;;;0.82;0.68;;;12.30;99.90;;;;;;5000706;28;20077;-81
2022/11/06 11:36:53;;;;;;;0.75;0.35;;;12.30;99.90;;;;;;5009582;28;20416;-82
2022/11/06 11:39:23;;;;;;;0.60;0.60;;;12.30;99.90;;;;;;5013480;28;20199;-82
2022/11/06 11:41:48;;;;;;;2.00;0.73;;;12.40;99.90;;;;;;5013522;28;20501;-81
2022/11/06 11:44:16;;;;;;;1.48;0.55;;;12.40;99.90;;;;;;5013157;28;20133;-81
2022/11/06 11:46:54;;;;;;;0.85;0.80;;;12.30;99.90;;;;;;5014006;28;20135;-82
2022/11/06 11:49:27;;;;;;;2.20;0.80;;;12.40;99.90;;;;;;5013382;28;20381;-82
2022/11/06 11:51:54;;;;;;;1.05;0.52;;;12.30;99.90;;;;;;5013584;28;20129;-84
2022/11/06 11:54:25;;;;;;;0.85;0.40;;;12.40;99.90;;;;;;4996082;28;20069;-81
2022/11/06 11:57:03;;;;;;;4.35;0.60;;;12.30;99.90;;;;;;5013249;28;20056;-81
2022/11/06 11:59:36;;;;;;;0.65;0.40;;;12.40;99.90;;;;;;5012463;28;20054;-83
2022/11/06 12:02:34;;;;;;;2.15;0.63;;;12.50;99.90;;;;;;5018601;28;20053;-83
2022/11/06 12:05:21;;;;;;;1.83;0.90;;;12.50;99.90;;;;;;5018426;28;20559;-83
2022/11/06 12:07:52;;;;;;;7.72;0.90;;;12.60;99.90;;;;;;5010548;28;20049;-83
2022/11/06 12:10:34;;;;;;;3.95;1.02;;;12.60;99.90;;;;;;5035535;28;20103;-84
2022/11/06 12:13:22;;;;;;;6.80;0.40;;;12.60;99.90;;;;;;5023743;28;20053;-84
2022/11/06 12:15:59;;;;;;;1.80;0.50;;;12.60;99.90;;;;;;5018098;28;20057;-84
2022/11/06 12:18:42;;;;;;;1.35;0.52;;;12.70;99.90;;;;;;5010148;28;20057;-86
2022/11/06 12:21:17;;;;;;;7.80;0.85;;;12.70;99.90;;;;;;4995683;28;20062;-84
2022/11/06 12:23:45;;;;;;;0.50;0.40;;;12.70;99.90;;;;;;5011658;28;20260;-84
2022/11/06 12:26:43;;;;;;;1.35;0.85;;;12.80;99.90;;;;;;5013775;28;20045;-84
2022/11/06 12:29:21;;;;;;;3.60;0.60;;;12.80;99.90;;;;;;5007252;28;20405;-84
2022/11/06 12:31:54;;;;;;;4.85;0.65;;;12.80;99.90;;;;;;5011832;28;20042;-84
2022/11/06 12:34:46;;;;;;;1.63;0.45;;;12.80;99.90;;;;;;5014427;28;20380;-84
2022/11/06 12:37:53;;;;;;;0.65;0.57;;;12.80;99.90;;;;;;4994194;28;20066;-82
2022/11/06 12:40:29;;;;;;;1.02;0.52;;;12.80;99.90;;;;;;4915536;29;20043;-82
2022/11/06 12:43:21;;;;;;;0.98;0.57;;;12.80;99.90;;;;;;5001413;28;20081;-83
2022/11/06 12:46:11;;;;;;;1.70;0.87;;;12.70;99.90;;;;;;5010859;28;20038;-83
2022/11/06 12:49:21;;;;;;;0.40;0.40;;;12.80;99.90;;;;;;5003839;28;20301;-82
2022/11/06 12:52:24;;;;;;;2.83;0.68;;;12.70;99.90;;;;;;4973354;28;20100;-84
2022/11/06 12:55:13;;;;;;;1.75;0.70;;;12.60;99.90;;;;;;5006753;28;20046;-84
2022/11/06 12:57:38;;;;;;;3.10;0.30;;;12.50;99.90;;;;;;4984004;28;20093;-84
2022/11/06 13:00:19;;;;;;;3.92;0.88;;;12.50;99.90;;;;;;5010853;28;20458;-84
2022/11/06 13:02:50;;;;;;;1.48;0.65;;;12.40;99.90;;;;;;5016573;28;20081;-85
2022/11/06 13:05:27;;;;;;;2.45;0.63;;;12.40;99.90;;;;;;5010259;28;20046;-85
2022/11/06 13:07:56;;;;;;;3.50;0.43;;;12.40;99.90;;;;;;5011925;28;20485;-84
2022/11/06 13:10:54;;;;;;;0.30;0.30;;;12.40;99.90;;;;;;5011521;28;20171;-88
2022/11/06 13:13:42;;;;;;;7.90;0.90;;;12.40;99.90;;;;;;4976907;28;20057;-85
2022/11/06 13:16:20;;;;;;;1.42;0.70;;;12.40;99.90;;;;;;4997153;28;20053;-85
2022/11/06 13:19:05;;;;;;;0.73;0.73;;;12.40;99.90;;;;;;4997575;28;20101;-84
2022/11/06 13:21:50;;;;;;;0.65;0.50;;;12.40;99.90;;;;;;5022339;28;20485;-84
2022/11/06 13:24:43;;;;;;;2.63;0.52;;;12.40;99.90;;;;;;5011511;28;20041;-84
2022/11/06 13:27:23;;;;;;;0.95;0.40;;;12.40;99.90;;;;;;5012450;28;20124;-84
2022/11/06 13:29:50;;;;;;;0.38;0.38;;;12.40;99.90;;;;;;5011789;28;20054;-83